Terminal Aerodrome Forecast
Issued by NWS Charleston, WV

Current Version | Previous Version | Text Only | Print | Product List | Glossary Off
Versions: 1 2 3 4 5 6 7 8 9 10 11 12 13 14 15 16 17 18 19 20 21 22

977
FTUS41 KRLX 231748
TAFEKN
TAF
KEKN 231748Z 2318/2418 14015G26KT P6SM OVC200
     FM232100 14012G20KT P6SM BKN070
     FM240100 14010G17KT P6SM -SHRA OVC070
     FM240600 14016G27KT P6SM -SHRA OVC035
     FM241400 13014G24KT 5SM -SHRA OVC025=

USA.gov is the U.S. government's official web portal to all federal, state and local government web resources and services.